createdAt,value
2018-07-27T00:00:51.266Z,94259.24
2018-07-27T00:15:52.525Z,94272.50
2018-07-27T00:30:53.012Z,94266.36
2018-07-27T00:45:51.256Z,94265.19
2018-07-27T01:00:59.610Z,94264.64
2018-07-27T01:15:53.410Z,94268.27
2018-07-27T01:30:52.212Z,94269.03
2018-07-27T01:45:50.259Z,94257.73
2018-07-27T02:00:50.850Z,94257.55
2018-07-27T02:15:52.236Z,94255.45
2018-07-27T02:30:53.001Z,94256.20
2018-07-27T02:45:50.699Z,94243.94
2018-07-27T03:00:50.853Z,94256.20
2018-07-27T03:15:50.897Z,94266.16
2018-07-27T03:30:52.666Z,94261.34
2018-07-27T03:45:52.378Z,94246.77
2018-07-27T04:00:50.124Z,94255.83
2018-07-27T04:15:50.258Z,94269.45
2018-07-27T04:30:51.842Z,94267.35
2018-07-27T04:45:50.408Z,94270.67
2018-07-27T05:00:52.468Z,94283.09
2018-07-27T05:15:50.616Z,94277.11
2018-07-27T05:30:52.868Z,94284.35
2018-07-27T05:45:51.406Z,94289.30
2018-07-27T06:00:50.826Z,94285.86
2018-07-27T06:15:50.810Z,94297.23
2018-07-27T06:30:50.253Z,94303.17
2018-07-27T06:45:50.720Z,94306.41
2018-07-27T07:00:50.416Z,94307.41
2018-07-27T07:15:52.404Z,94321.69
2018-07-27T07:30:52.804Z,94328.57
2018-07-27T07:45:51.325Z,94321.38
2018-07-27T08:00:50.791Z,94315.81
2018-07-27T08:15:52.831Z,94309.53
2018-07-27T08:30:49.979Z,94295.50
2018-07-27T08:45:50.437Z,94290.03
2018-07-27T09:00:56.281Z,94284.20
2018-07-27T09:15:52.545Z,94263.99
2018-07-27T09:30:50.894Z,94248.36
2018-07-27T09:45:51.211Z,94218.53
2018-07-27T10:00:55.860Z,94206.59
2018-07-27T10:45:52.159Z,94167.94
2018-07-27T12:15:57.236Z,94093.67
2018-07-27T12:45:51.041Z,94099.67
2018-07-27T13:00:50.833Z,94093.09
2018-07-27T13:15:50.843Z,94090.95
2018-07-27T13:30:52.144Z,94096.10
2018-07-27T13:45:52.298Z,94110.22
2018-07-27T14:00:50.209Z,94131.16
2018-07-27T14:15:52.158Z,94148.03
2018-07-27T14:30:50.757Z,94130.66
2018-07-27T14:45:50.375Z,94132.78
2018-07-27T15:00:51.611Z,94141.30
2018-07-27T15:15:51.346Z,94100.24
2018-07-27T15:30:56.834Z,94119.73
2018-07-27T15:45:51.015Z,94141.28
2018-07-27T16:00:55.112Z,94148.89
2018-07-27T16:15:52.047Z,94154.05
2018-07-27T16:30:51.801Z,94160.02
2018-07-27T16:45:52.624Z,94181.38
2018-07-27T17:00:51.679Z,94197.15
2018-07-27T17:15:50.910Z,94185.22
2018-07-27T17:30:50.675Z,94209.73
2018-07-27T17:45:53.571Z,94233.36
2018-07-27T18:00:50.563Z,94220.70
2018-07-27T18:15:51.226Z,94223.52
2018-07-27T18:30:53.596Z,94230.93
2018-07-27T18:45:51.341Z,94236.66
2018-07-27T19:00:50.778Z,94247.58
2018-07-27T19:15:52.216Z,94260.27
2018-07-27T19:30:51.169Z,94262.80
2018-07-27T19:45:50.930Z,94270.67
2018-07-27T20:00:52.845Z,94237.50
2018-07-27T20:15:51.593Z,94236.19
2018-07-27T20:30:51.536Z,94245.59
2018-07-27T20:45:58.864Z,94243.89
2018-07-27T21:15:53.536Z,94230.06
2018-07-27T21:30:53.478Z,94183.05
2018-07-27T22:00:51.842Z,94170.96
2018-07-27T22:15:51.744Z,94171.23
2018-07-27T23:00:52.114Z,94166.46
2018-07-27T23:15:51.386Z,94188.78
2018-07-27T23:30:51.599Z,94174.77
